createdAt,value
2018-05-23T00:00:24.404Z,20.00
2018-05-23T00:01:27.472Z,21.00
2018-05-23T00:02:30.488Z,19.00
2018-05-23T00:03:33.319Z,21.50
2018-05-23T00:04:36.121Z,19.50
2018-05-23T00:05:39.417Z,19.75
2018-05-23T00:06:42.245Z,19.75
2018-05-23T00:07:46.754Z,19.00
2018-05-23T00:08:49.780Z,22.00
2018-05-23T00:09:53.240Z,21.25
2018-05-23T00:10:58.973Z,26.75
2018-05-23T00:12:04.163Z,21.75
2018-05-23T00:13:06.943Z,20.00
2018-05-23T00:14:09.795Z,20.00
2018-05-23T00:15:13.731Z,19.75
2018-05-23T00:16:17.206Z,19.00
2018-05-23T00:17:20.077Z,18.50
2018-05-23T00:18:23.185Z,19.50
2018-05-23T00:19:26.126Z,17.00
2018-05-23T00:20:28.994Z,19.50
2018-05-23T00:21:32.425Z,22.25
2018-05-23T00:22:35.325Z,22.75
2018-05-23T00:23:38.153Z,22.00
2018-05-23T00:24:41.733Z,22.00
2018-05-23T00:25:44.527Z,28.75
2018-05-23T00:26:47.302Z,30.75
2018-05-23T00:27:50.120Z,39.50
2018-05-23T00:28:53.131Z,44.75
2018-05-23T00:29:55.943Z,47.25
2018-05-23T00:30:59.453Z,47.25
2018-05-23T00:32:03.085Z,44.75
2018-05-23T00:33:06.026Z,41.75
2018-05-23T00:34:09.698Z,39.00
2018-05-23T00:35:12.931Z,31.00
2018-05-23T00:36:15.739Z,30.00
2018-05-23T00:37:19.208Z,29.75
2018-05-23T00:38:21.977Z,25.00
2018-05-23T00:39:24.817Z,28.00
2018-05-23T00:40:29.563Z,30.50
2018-05-23T00:41:32.305Z,25.50
2018-05-23T00:42:35.190Z,23.50
2018-05-23T00:43:40.657Z,20.00
2018-05-23T00:44:43.978Z,21.50
2018-05-23T00:45:46.862Z,22.50
2018-05-23T00:46:49.699Z,23.75
2018-05-23T00:47:52.962Z,19.00
2018-05-23T00:48:55.771Z,21.75
2018-05-23T00:49:58.834Z,17.00
2018-05-23T00:51:02.714Z,18.75
2018-05-23T00:52:05.485Z,16.50
2018-05-23T00:53:08.850Z,20.75
2018-05-23T00:54:11.612Z,21.25
2018-05-23T00:55:14.400Z,22.00
2018-05-23T00:56:17.473Z,22.25
2018-05-23T00:57:20.329Z,20.75
2018-05-23T00:58:23.277Z,20.75
2018-05-23T00:59:26.156Z,19.75
2018-05-23T01:00:28.948Z,21.00
2018-05-23T01:01:31.927Z,20.50
2018-05-23T01:02:35.515Z,22.00
2018-05-23T01:03:38.303Z,20.00
2018-05-23T01:04:42.346Z,18.50
2018-05-23T01:05:45.228Z,21.00
2018-05-23T01:06:48.000Z,19.50
2018-05-23T01:07:51.419Z,18.00
2018-05-23T01:08:56.911Z,18.50
2018-05-23T01:10:00.670Z,18.25
2018-05-23T01:11:04.093Z,20.75
2018-05-23T01:12:06.936Z,17.75
2018-05-23T01:13:09.845Z,20.50
2018-05-23T01:14:12.869Z,18.50
2018-05-23T01:15:16.150Z,18.25
2018-05-23T01:16:18.983Z,17.50
2018-05-23T01:17:22.012Z,17.75
2018-05-23T01:18:24.883Z,15.75
2018-05-23T01:19:27.944Z,19.00
2018-05-23T01:20:30.911Z,15.25
2018-05-23T01:21:34.295Z,15.50
2018-05-23T01:22:37.167Z,16.00
2018-05-23T01:23:40.674Z,21.50
2018-05-23T01:24:43.683Z,15.00
2018-05-23T01:25:46.617Z,16.00
2018-05-23T01:26:49.448Z,16.00
2018-05-23T01:27:53.364Z,17.25
2018-05-23T01:28:56.423Z,17.75
2018-05-23T01:29:59.437Z,14.50
2018-05-23T01:31:02.261Z,18.75
2018-05-23T01:32:05.125Z,18.50
2018-05-23T01:33:09.094Z,18.25
2018-05-23T01:34:12.220Z,19.00
2018-05-23T01:35:15.034Z,20.75
2018-05-23T01:36:17.822Z,21.25
2018-05-23T01:37:20.895Z,20.25
2018-05-23T01:38:24.157Z,17.00
2018-05-23T01:39:26.925Z,19.25
2018-05-23T01:40:30.004Z,18.50
2018-05-23T01:41:32.754Z,16.00
2018-05-23T01:42:35.633Z,18.25
2018-05-23T01:43:38.786Z,20.25
2018-05-23T01:44:41.508Z,20.00
2018-05-23T01:45:44.271Z,19.50
2018-05-23T01:46:47.334Z,18.00
2018-05-23T01:47:51.521Z,19.00
2018-05-23T01:48:54.421Z,18.75
2018-05-23T01:49:57.198Z,20.25
2018-05-23T01:50:59.929Z,17.00
2018-05-23T01:52:02.674Z,18.00
2018-05-23T01:53:05.679Z,20.25
2018-05-23T01:54:08.405Z,17.00
2018-05-23T01:55:11.154Z,16.00
2018-05-23T01:56:13.942Z,21.75
2018-05-23T01:57:16.698Z,19.00
2018-05-23T01:58:19.482Z,18.50
2018-05-23T01:59:22.521Z,20.50
2018-05-23T02:00:25.261Z,18.25
2018-05-23T02:01:28.014Z,19.00
2018-05-23T02:02:30.756Z,20.00
2018-05-23T02:03:34.025Z,19.50
2018-05-23T02:04:37.328Z,19.75
2018-05-23T02:05:40.436Z,19.00
2018-05-23T02:06:43.374Z,20.75
2018-05-23T02:07:46.612Z,19.75
2018-05-23T02:08:49.833Z,17.75
2018-05-23T02:09:52.876Z,17.50
2018-05-23T02:10:55.770Z,24.50
2018-05-23T02:11:59.124Z,23.00
2018-05-23T02:13:02.269Z,18.75
2018-05-23T02:14:05.129Z,21.75
2018-05-23T02:15:08.376Z,19.75
2018-05-23T02:16:11.136Z,18.25
2018-05-23T02:17:13.910Z,17.50
2018-05-23T02:18:16.996Z,20.75
2018-05-23T02:19:20.295Z,18.75
2018-05-23T02:20:23.131Z,20.75
2018-05-23T02:21:26.176Z,19.75
2018-05-23T02:22:28.964Z,19.50
2018-05-23T02:23:31.729Z,20.00
2018-05-23T02:24:34.776Z,20.25
2018-05-23T02:25:37.555Z,19.00
2018-05-23T02:26:40.307Z,19.00
2018-05-23T02:27:43.114Z,19.25
2018-05-23T02:28:46.425Z,21.50
2018-05-23T02:29:49.168Z,21.75
2018-05-23T02:30:52.587Z,19.50
2018-05-23T02:31:55.343Z,19.00
2018-05-23T02:32:58.457Z,19.25
2018-05-23T02:34:01.205Z,21.50
2018-05-23T02:35:06.083Z,19.00
2018-05-23T02:36:08.814Z,21.00
2018-05-23T02:37:11.902Z,22.25
2018-05-23T02:38:14.714Z,22.00
2018-05-23T02:39:18.781Z,19.25
2018-05-23T02:40:21.586Z,18.00
2018-05-23T02:41:24.351Z,21.75
2018-05-23T02:42:27.658Z,21.00
2018-05-23T02:43:30.720Z,19.00
2018-05-23T02:44:33.750Z,23.00
2018-05-23T02:45:36.785Z,22.25
2018-05-23T02:46:39.594Z,20.75
2018-05-23T02:47:42.447Z,28.00
2018-05-23T02:48:45.776Z,41.25
2018-05-23T02:49:48.844Z,35.75
2018-05-23T02:50:52.921Z,36.50
2018-05-23T02:51:55.674Z,34.00
2018-05-23T02:52:59.245Z,34.25
2018-05-23T02:54:02.025Z,34.00
2018-05-23T02:55:04.790Z,35.00
2018-05-23T02:56:08.012Z,34.00
2018-05-23T02:57:11.008Z,27.50
2018-05-23T02:58:13.888Z,27.00
2018-05-23T02:59:18.593Z,35.00
2018-05-23T03:00:21.466Z,44.25
2018-05-23T03:01:24.184Z,41.75
2018-05-23T03:02:27.279Z,44.25
2018-05-23T03:03:30.078Z,44.50
2018-05-23T03:04:33.193Z,45.00
2018-05-23T03:05:35.965Z,45.50
2018-05-23T03:06:38.742Z,50.00
2018-05-23T03:07:41.886Z,51.50
2018-05-23T03:08:45.099Z,53.00
2018-05-23T03:09:47.970Z,53.50
2018-05-23T03:10:50.703Z,49.75
2018-05-23T03:11:53.441Z,48.00
2018-05-23T03:12:56.203Z,46.50
2018-05-23T03:13:59.243Z,48.00
2018-05-23T03:15:02.323Z,45.00
2018-05-23T03:16:05.573Z,43.75
2018-05-23T03:17:08.355Z,42.00
2018-05-23T03:18:12.165Z,42.00
2018-05-23T03:19:15.078Z,41.00
2018-05-23T03:20:17.902Z,41.75
2018-05-23T03:21:21.026Z,40.50
2018-05-23T03:22:23.831Z,43.50
2018-05-23T03:23:26.586Z,34.25
2018-05-23T03:24:29.496Z,38.75
2018-05-23T03:25:32.288Z,35.25
2018-05-23T03:26:35.155Z,36.00
2018-05-23T03:27:38.551Z,41.00
2018-05-23T03:28:41.306Z,31.50
2018-05-23T03:29:44.088Z,35.50
2018-05-23T03:30:46.835Z,30.00
2018-05-23T03:31:49.571Z,33.50
2018-05-23T03:32:53.857Z,31.75
2018-05-23T03:33:56.933Z,30.25
2018-05-23T03:34:59.762Z,27.00
2018-05-23T03:36:02.528Z,30.00
2018-05-23T03:37:05.316Z,26.50
2018-05-23T03:38:08.109Z,33.75
2018-05-23T03:39:10.993Z,26.00
2018-05-23T03:40:14.041Z,27.50
2018-05-23T03:41:16.818Z,27.50
2018-05-23T03:42:20.544Z,29.25
2018-05-23T03:43:23.364Z,31.75
2018-05-23T03:44:26.465Z,24.50
2018-05-23T03:45:29.511Z,29.50
2018-05-23T03:46:32.629Z,30.50
2018-05-23T03:47:35.368Z,27.75
2018-05-23T03:48:38.607Z,27.50
2018-05-23T03:49:41.490Z,24.50
2018-05-23T03:50:44.718Z,24.00
2018-05-23T03:51:47.796Z,27.25
2018-05-23T03:52:50.642Z,27.50
2018-05-23T03:53:53.670Z,27.25
2018-05-23T03:54:56.468Z,26.25
2018-05-23T03:55:59.612Z,25.25
2018-05-23T03:57:02.467Z,24.50
2018-05-23T03:58:05.640Z,27.50
2018-05-23T03:59:08.664Z,27.50
2018-05-23T04:00:11.449Z,26.75
2018-05-23T04:01:16.564Z,29.50
2018-05-23T04:02:19.570Z,29.50
2018-05-23T04:03:22.956Z,31.75
2018-05-23T04:04:26.147Z,30.00
2018-05-23T04:05:29.260Z,32.00
2018-05-23T04:06:31.996Z,27.00
2018-05-23T04:07:35.217Z,30.00
2018-05-23T04:08:38.008Z,32.25
2018-05-23T04:09:40.883Z,31.50
2018-05-23T04:10:44.140Z,29.75
2018-05-23T04:11:47.174Z,30.50
2018-05-23T04:12:49.954Z,36.00
2018-05-23T04:13:53.682Z,31.00
2018-05-23T04:14:56.450Z,26.25
2018-05-23T04:15:59.261Z,29.00
2018-05-23T04:17:05.527Z,26.50
2018-05-23T04:18:09.557Z,26.25
2018-05-23T04:19:12.487Z,28.75
2018-05-23T04:20:16.671Z,26.25
2018-05-23T04:21:19.562Z,24.50
2018-05-23T04:22:22.341Z,33.25
2018-05-23T04:23:26.042Z,27.00
2018-05-23T04:24:29.001Z,30.00
2018-05-23T04:25:31.976Z,33.25
2018-05-23T04:26:34.874Z,26.00
2018-05-23T04:27:37.706Z,25.75
2018-05-23T04:28:40.473Z,28.75
2018-05-23T04:29:44.105Z,28.50
2018-05-23T04:30:47.223Z,29.50
2018-05-23T04:31:49.985Z,28.50
2018-05-23T04:32:52.914Z,28.75
2018-05-23T04:33:55.724Z,25.50
2018-05-23T04:34:58.536Z,28.00
2018-05-23T04:36:02.830Z,28.50
2018-05-23T04:37:05.707Z,28.75
2018-05-23T04:38:08.477Z,23.25
2018-05-23T04:39:11.247Z,25.25
2018-05-23T04:40:14.020Z,28.25
2018-05-23T04:41:17.425Z,25.00
2018-05-23T04:42:20.480Z,27.25
2018-05-23T04:43:24.093Z,25.75
2018-05-23T04:44:26.853Z,26.00
2018-05-23T04:45:30.250Z,30.25
2018-05-23T04:46:33.066Z,28.75
2018-05-23T04:47:35.926Z,29.75
2018-05-23T04:48:38.798Z,27.25
2018-05-23T04:49:41.911Z,31.75
2018-05-23T04:50:44.726Z,26.50
2018-05-23T04:51:48.388Z,25.50
2018-05-23T04:52:51.196Z,29.75
2018-05-23T04:53:54.982Z,26.00
2018-05-23T04:54:57.741Z,25.00
2018-05-23T04:56:00.485Z,27.75
2018-05-23T04:57:03.921Z,27.00
2018-05-23T04:58:07.058Z,30.25
2018-05-23T04:59:09.798Z,28.00
2018-05-23T05:00:14.645Z,29.25
2018-05-23T05:01:17.402Z,26.00
2018-05-23T05:02:20.415Z,26.75
2018-05-23T05:03:23.204Z,28.75
2018-05-23T05:04:27.159Z,29.75
2018-05-23T05:05:29.925Z,29.25
2018-05-23T05:06:33.069Z,25.00
2018-05-23T05:07:36.067Z,28.25
2018-05-23T05:08:38.812Z,29.25
2018-05-23T05:09:41.585Z,23.75
2018-05-23T05:10:45.923Z,28.00
2018-05-23T05:11:48.694Z,26.25
2018-05-23T05:12:52.434Z,26.50
2018-05-23T05:13:55.211Z,31.00
2018-05-23T05:14:58.299Z,24.75
2018-05-23T05:16:01.323Z,26.75
2018-05-23T05:17:04.667Z,24.00
2018-05-23T05:18:08.337Z,24.75
2018-05-23T05:19:11.116Z,25.25
2018-05-23T05:20:14.722Z,26.00
2018-05-23T05:21:17.497Z,24.00
2018-05-23T05:22:20.242Z,28.00
2018-05-23T05:23:22.985Z,25.50
2018-05-23T05:24:26.049Z,26.75
2018-05-23T05:25:29.176Z,26.00
2018-05-23T05:26:31.992Z,27.00
2018-05-23T05:27:35.063Z,24.00
2018-05-23T05:28:37.886Z,24.50
2018-05-23T05:29:40.700Z,22.00
2018-05-23T05:30:44.288Z,25.75
2018-05-23T05:31:47.142Z,19.50
2018-05-23T05:32:50.042Z,23.50
2018-05-23T05:33:52.892Z,24.75
2018-05-23T05:34:55.760Z,22.75
2018-05-23T05:35:58.519Z,22.00
2018-05-23T05:37:01.596Z,23.00
2018-05-23T05:38:04.773Z,23.50
2018-05-23T05:39:08.205Z,27.50
2018-05-23T05:40:10.979Z,24.00
2018-05-23T05:41:14.415Z,23.75
2018-05-23T05:42:17.531Z,25.50
2018-05-23T05:43:21.007Z,24.50
2018-05-23T05:44:24.147Z,23.25
2018-05-23T05:45:27.842Z,24.75
2018-05-23T05:46:30.701Z,25.00
2018-05-23T05:47:33.465Z,23.25
2018-05-23T05:48:36.797Z,22.25
2018-05-23T05:49:40.276Z,22.75
2018-05-23T05:50:43.291Z,22.25
2018-05-23T05:51:46.184Z,23.00
2018-05-23T05:52:48.953Z,22.50
2018-05-23T05:53:52.106Z,23.50
2018-05-23T05:54:54.920Z,22.25
2018-05-23T05:55:58.093Z,21.50
2018-05-23T05:57:00.956Z,21.50
2018-05-23T05:58:03.818Z,22.00
2018-05-23T05:59:08.293Z,22.75
2018-05-23T06:00:11.137Z,23.00
2018-05-23T06:01:14.619Z,25.50
2018-05-23T06:02:17.741Z,22.25
2018-05-23T06:03:21.348Z,24.75
2018-05-23T06:04:24.158Z,20.50
2018-05-23T06:05:26.974Z,21.75
2018-05-23T06:06:29.740Z,22.75
2018-05-23T06:07:33.281Z,24.25
2018-05-23T06:08:36.363Z,21.75
2018-05-23T06:09:39.522Z,23.25
2018-05-23T06:10:42.356Z,25.25
2018-05-23T06:11:45.202Z,23.25
2018-05-23T06:12:47.979Z,21.00
2018-05-23T06:13:50.838Z,25.25
2018-05-23T06:14:54.374Z,23.00
2018-05-23T06:15:57.138Z,24.50
2018-05-23T06:17:02.257Z,20.00
2018-05-23T06:18:05.029Z,24.25
2018-05-23T06:19:07.866Z,24.00
2018-05-23T06:20:10.679Z,24.25
2018-05-23T06:21:14.360Z,24.25
2018-05-23T06:22:17.154Z,24.00
2018-05-23T06:23:20.016Z,24.50
2018-05-23T06:24:22.773Z,21.75
2018-05-23T06:25:25.768Z,20.00
2018-05-23T06:26:29.356Z,26.00
2018-05-23T06:27:32.566Z,24.50
2018-05-23T06:28:35.484Z,23.50
2018-05-23T06:29:38.260Z,24.00
2018-05-23T06:31:39.886Z,24.50
2018-05-23T06:32:42.662Z,25.25
2018-05-23T06:33:45.698Z,25.25
2018-05-23T06:34:49.420Z,26.75
2018-05-23T06:35:52.225Z,24.25
2018-05-23T06:36:54.984Z,25.00
2018-05-23T06:37:57.790Z,24.00
2018-05-23T06:39:00.681Z,23.25
2018-05-23T06:40:03.772Z,23.75
2018-05-23T06:41:06.690Z,24.00
2018-05-23T06:42:09.603Z,24.75
2018-05-23T06:43:14.005Z,23.75
2018-05-23T06:44:16.789Z,24.00
2018-05-23T06:45:19.532Z,23.25
2018-05-23T06:46:22.751Z,25.75
2018-05-23T06:47:25.529Z,24.00
2018-05-23T06:48:31.980Z,24.00
2018-05-23T06:49:34.839Z,24.00
2018-05-23T06:50:37.716Z,27.00
2018-05-23T06:51:40.446Z,26.25
2018-05-23T06:52:44.854Z,25.50
2018-05-23T06:53:47.673Z,30.25
2018-05-23T06:54:50.758Z,27.00
2018-05-23T06:55:53.702Z,26.50
2018-05-23T06:56:58.905Z,24.00
2018-05-23T06:58:02.176Z,28.75
2018-05-23T06:59:05.832Z,29.25
2018-05-23T07:00:09.151Z,24.00
2018-05-23T07:01:12.433Z,29.75
2018-05-23T07:02:16.077Z,25.00
2018-05-23T07:03:19.093Z,30.00
2018-05-23T07:04:21.942Z,29.00
2018-05-23T07:05:27.270Z,27.75
2018-05-23T07:06:30.550Z,24.00
2018-05-23T07:07:35.463Z,30.25
2018-05-23T07:08:38.759Z,34.25
2018-05-23T07:09:42.739Z,31.00
2018-05-23T07:10:46.069Z,33.50
2018-05-23T07:11:49.161Z,30.50
2018-05-23T07:12:52.389Z,30.00
2018-05-23T07:13:57.010Z,28.75
2018-05-23T07:15:01.069Z,30.50
2018-05-23T07:16:04.071Z,33.00
2018-05-23T07:17:07.257Z,32.00
2018-05-23T07:18:10.227Z,30.50
2018-05-23T07:19:13.829Z,29.00
2018-05-23T07:20:16.699Z,29.75
2018-05-23T07:21:19.478Z,28.25
2018-05-23T07:22:22.233Z,27.00
2018-05-23T07:23:25.630Z,27.00
2018-05-23T07:24:28.715Z,26.50
2018-05-23T07:25:32.017Z,28.00
2018-05-23T07:26:34.869Z,24.75
2018-05-23T07:27:37.648Z,26.25
2018-05-23T07:28:40.443Z,29.25
2018-05-23T07:29:43.602Z,29.50
2018-05-23T07:30:47.099Z,24.00
2018-05-23T07:31:49.966Z,26.00
2018-05-23T07:32:52.841Z,24.75
2018-05-23T07:33:55.722Z,24.25
2018-05-23T07:35:00.020Z,23.00
2018-05-23T07:36:03.147Z,20.00
2018-05-23T07:37:06.395Z,20.50
2018-05-23T07:38:09.172Z,24.25
2018-05-23T07:39:13.795Z,24.00
2018-05-23T07:40:16.584Z,24.00
2018-05-23T07:41:19.430Z,21.00
2018-05-23T07:42:22.700Z,20.50
2018-05-23T07:43:27.105Z,19.00
2018-05-23T07:44:31.645Z,19.75
2018-05-23T07:45:34.442Z,20.50
2018-05-23T07:46:37.244Z,20.50
